Time;durP1;ratioP1;P1;durP2;ratioP2;P2;SDS_P1;SDS_P2;PMS_P1;PMS_P2;Temp;Humidity;BMP_temperature;BMP_pressure;BME280_temperature;BME280_humidity;BME280_pressure;Samples;Min_cycle;Max_cycle;Signal;HPM_P1;HPM_P2
2022/05/29 00:01:33;;;;;;;8.75;2.78;;;;;;;8.44;77.94;101771.78;4953115;29;20106;-84
2022/05/29 00:03:59;;;;;;;8.85;2.88;;;;;;;8.34;78.22;101781.88;4936527;29;20560;-84
2022/05/29 00:06:24;;;;;;;8.02;2.53;;;;;;;8.36;78.02;101780.03;4934969;29;20086;-84
2022/05/29 00:08:50;;;;;;;10.75;2.88;;;;;;;8.35;78.49;101777.47;4934764;29;20027;-84
2022/05/29 00:11:15;;;;;;;9.80;2.97;;;;;;;8.37;78.76;101775.63;4959400;28;20031;-84
2022/05/29 00:13:44;;;;;;;7.47;2.60;;;;;;;8.34;78.71;101773.16;4952454;29;20027;-84
2022/05/29 00:16:09;;;;;;;10.88;2.83;;;;;;;8.27;79.06;101769.13;4951959;29;20059;-84
2022/05/29 00:18:37;;;;;;;8.80;2.50;;;;;;;8.28;79.14;101771.66;4955601;28;20063;-84
2022/05/29 00:21:05;;;;;;;9.38;2.97;;;;;;;8.20;79.27;101771.19;4953994;29;20046;-84
2022/05/29 00:23:35;;;;;;;9.05;3.67;;;;;;;8.13;79.46;101767.19;4954523;29;20035;-84
2022/05/29 00:26:00;;;;;;;7.20;2.80;;;;;;;8.10;79.86;101764.72;4951862;28;20043;-84
2022/05/29 00:28:26;;;;;;;9.57;3.03;;;;;;;8.13;79.41;101760.16;4953614;29;20028;-84
2022/05/29 00:30:51;;;;;;;8.68;3.20;;;;;;;8.14;79.52;101759.25;4952923;29;20038;-84
2022/05/29 00:33:16;;;;;;;10.25;3.47;;;;;;;8.10;79.97;101759.47;4935879;29;20106;-84
2022/05/29 00:35:42;;;;;;;9.40;3.20;;;;;;;8.06;79.89;101756.16;4935391;29;20023;-84
2022/05/29 00:38:10;;;;;;;8.25;3.10;;;;;;;8.06;80.00;101760.53;4953361;29;20030;-84
2022/05/29 00:41:04;;;;;;;8.52;2.95;;;;;;;8.03;79.74;101756.31;4952166;29;20034;-84
2022/05/29 00:43:29;;;;;;;10.93;3.50;;;;;;;7.99;80.41;101748.63;4951760;28;20058;-84
2022/05/29 00:45:58;;;;;;;13.40;3.50;;;;;;;7.92;80.56;101749.88;4953397;29;20054;-84
2022/05/29 00:48:25;;;;;;;9.35;3.42;;;;;;;7.86;80.85;101737.91;4952747;29;20059;-84
2022/05/29 00:50:54;;;;;;;9.85;3.88;;;;;;;7.86;81.19;101738.75;4935189;29;20077;-84
2022/05/29 00:53:20;;;;;;;10.70;3.83;;;;;;;7.87;80.86;101734.38;4936015;29;20024;-84
2022/05/29 00:55:50;;;;;;;13.15;4.00;;;;;;;7.81;80.91;101730.28;4951605;29;20027;-83
2022/05/29 00:58:17;;;;;;;11.85;4.25;;;;;;;7.79;81.21;101731.28;4952966;29;20054;-83
2022/05/29 01:00:42;;;;;;;11.32;4.07;;;;;;;7.80;81.31;101732.97;4932829;29;20401;-83
2022/05/29 01:03:08;;;;;;;10.32;3.50;;;;;;;7.82;81.47;101731.13;4935035;29;20030;-83
2022/05/29 01:05:35;;;;;;;10.07;4.25;;;;;;;7.80;81.79;101732.97;4952065;29;20031;-83
2022/05/29 01:08:07;;;;;;;10.68;3.85;;;;;;;7.81;82.38;101735.53;4951567;28;20497;-83
2022/05/29 01:10:47;;;;;;;10.52;4.13;;;;;;;7.84;82.36;101726.66;4936576;29;20031;-84
2022/05/29 01:13:50;;;;;;;14.68;4.35;;;;;;;7.90;82.38;101728.97;4951247;29;20031;-83
2022/05/29 01:16:31;;;;;;;10.18;4.03;;;;;;;7.97;82.99;101725.13;4949809;28;20043;-83
2022/05/29 01:19:14;;;;;;;12.13;3.90;;;;;;;7.98;83.09;101720.72;4939026;29;20509;-84
2022/05/29 01:22:02;;;;;;;10.45;4.15;;;;;;;8.06;82.67;101713.38;4951982;29;20481;-84
2022/05/29 01:25:00;;;;;;;13.20;4.38;;;;;;;8.10;82.64;101712.28;4950952;28;20031;-84
2022/05/29 01:27:40;;;;;;;11.93;3.83;;;;;;;8.11;82.63;101714.84;4952107;29;20042;-83
2022/05/29 01:30:25;;;;;;;11.75;4.10;;;;;;;8.17;81.77;101708.44;4934031;29;20047;-84
2022/05/29 01:33:19;;;;;;;13.68;4.18;;;;;;;8.16;82.04;101715.44;4932630;28;20038;-83
2022/05/29 01:36:09;;;;;;;11.63;4.00;;;;;;;8.13;81.75;101710.38;4948379;29;20102;-84
2022/05/29 01:38:42;;;;;;;9.07;3.42;;;;;;;8.10;81.96;101702.66;4952029;29;20054;-83
2022/05/29 01:41:12;;;;;;;;;;;;;;;8.24;79.50;101696.72;4952730;29;20031;-83
2022/05/29 01:43:49;;;;;;;7.07;3.65;;;;;;;8.05;81.84;101695.94;4951314;29;19949;-84
2022/05/29 01:46:22;;;;;;;10.18;4.10;;;;;;;8.03;82.37;101697.81;4935031;29;20027;-84
2022/05/29 01:49:18;;;;;;;12.00;4.05;;;;;;;8.04;81.98;101702.13;4934790;29;20035;-83
2022/05/29 01:52:10;;;;;;;7.38;3.30;;;;;;;7.96;81.84;101697.22;4932839;29;20122;-84
2022/05/29 01:55:07;;;;;;;10.90;3.70;;;;;;;7.84;82.29;101693.44;4952050;29;20031;-83
2022/05/29 01:57:36;;;;;;;7.70;3.50;;;;;;;7.84;82.78;101692.59;4882929;29;20479;-83
2022/05/29 02:00:13;;;;;;;9.82;3.53;;;;;;;7.79;82.89;101695.44;4935061;29;20042;-84
2022/05/29 02:02:56;;;;;;;9.52;3.50;;;;;;;7.77;83.11;101692.06;4949246;28;20030;-84
2022/05/29 02:05:29;;;;;;;12.15;3.83;;;;;;;7.73;82.77;101684.44;4948717;29;20041;-83
2022/05/29 02:08:10;;;;;;;10.35;3.75;;;;;;;7.76;82.94;101686.91;4917719;29;20039;-83
2022/05/29 02:10:41;;;;;;;8.68;3.58;;;;;;;7.59;82.94;101685.06;4948903;28;20028;-84
2022/05/29 02:13:13;;;;;;;8.25;3.47;;;;;;;7.58;83.20;101679.91;4950925;29;20027;-83
2022/05/29 02:16:06;;;;;;;12.38;3.80;;;;;;;7.64;82.78;101675.25;4933830;29;20114;-83
2022/05/29 02:18:49;;;;;;;9.27;3.90;;;;;;;7.57;83.17;101683.44;4949691;28;20023;-84
2022/05/29 02:21:26;;;;;;;8.75;3.75;;;;;;;7.53;83.78;101683.59;4949370;29;20149;-84
2022/05/29 02:23:55;;;;;;;11.32;3.90;;;;;;;7.49;83.62;101682.06;4951294;29;20489;-84
2022/05/29 02:26:25;;;;;;;8.00;3.70;;;;;;;7.51;84.02;101680.22;4932673;29;20098;-84
2022/05/29 02:28:55;;;;;;;10.60;3.95;;;;;;;7.53;83.95;101673.13;4918375;29;20450;-85
2022/05/29 02:31:45;;;;;;;12.73;4.63;;;;;;;7.57;84.17;101673.81;4934268;29;20118;-85
2022/05/29 02:34:39;;;;;;;8.82;3.92;;;;;;;7.54;84.00;101666.97;4933792;29;20038;-85
2022/05/29 02:37:29;;;;;;;8.68;4.05;;;;;;;7.58;83.77;101664.19;4934324;29;20031;-85
2022/05/29 02:40:39;;;;;;;8.40;4.20;;;;;;;7.55;83.48;101668.66;4946898;29;20061;-85
2022/05/29 02:43:27;;;;;;;11.25;4.15;;;;;;;7.51;84.02;101668.88;4944439;28;20043;-84
2022/05/29 02:46:11;;;;;;;11.68;4.20;;;;;;;7.47;83.87;101667.34;4942773;29;20523;-84
2022/05/29 02:48:43;;;;;;;13.82;4.70;;;;;;;7.33;84.57;101660.16;4933065;29;20033;-84
2022/05/29 02:51:30;;;;;;;6.95;3.78;;;;;;;7.41;84.11;101658.00;4934517;29;20051;-84
2022/05/29 02:53:55;;;;;;;10.95;4.50;;;;;;;7.36;84.73;101660.00;4929054;29;20043;-84
2022/05/29 02:56:21;;;;;;;9.85;3.90;;;;;;;7.41;84.94;101655.41;4951800;29;20083;-84
2022/05/29 02:58:51;;;;;;;10.80;4.22;;;;;;;7.43;85.00;101656.16;4949626;28;20027;-85
2022/05/29 03:01:44;;;;;;;8.23;4.20;;;;;;;7.37;85.80;101655.63;4931698;29;20068;-84
2022/05/29 03:04:36;;;;;;;9.98;4.20;;;;;;;7.46;85.08;101655.16;4951794;29;20027;-84
2022/05/29 03:07:23;;;;;;;15.43;4.30;;;;;;;7.43;85.49;101656.16;4947224;29;20048;-84
2022/05/29 03:10:07;;;;;;;9.35;3.85;;;;;;;7.42;85.75;101648.38;4926906;29;20258;-85
2022/05/29 03:12:51;;;;;;;13.38;4.43;;;;;;;7.45;85.79;101654.31;4931265;29;20042;-85
2022/05/29 03:15:48;;;;;;;8.32;4.00;;;;;;;7.49;85.50;101648.00;4945458;28;20470;-85
2022/05/29 03:18:43;;;;;;;10.25;4.28;;;;;;;7.52;85.83;101645.25;4932349;29;20111;-84
2022/05/29 03:21:41;;;;;;;10.88;4.28;;;;;;;7.60;84.94;101644.00;4932401;29;20036;-85
2022/05/29 03:24:09;;;;;;;11.10;4.70;;;;;;;7.57;85.71;101644.16;4942438;29;20132;-84
2022/05/29 03:26:53;;;;;;;9.32;4.28;;;;;;;7.62;85.88;101644.81;4931367;29;20504;-85
2022/05/29 03:29:35;;;;;;;10.93;4.43;;;;;;;7.66;85.63;101641.13;4930203;29;20502;-85
2022/05/29 03:32:02;;;;;;;10.40;3.78;;;;;;;7.66;85.71;101633.28;4927958;29;20400;-85
2022/05/29 03:34:27;;;;;;;10.70;4.00;;;;;;;7.68;85.71;101634.03;4931004;29;20043;-85
2022/05/29 03:36:53;;;;;;;12.48;4.18;;;;;;;7.69;85.84;101631.34;4931314;29;20114;-85
2022/05/29 03:39:18;;;;;;;10.43;4.10;;;;;;;7.76;85.74;101627.50;4934191;29;20056;-85
2022/05/29 03:41:52;;;;;;;8.80;3.90;;;;;;;7.85;85.58;101624.41;4934830;29;20035;-85
2022/05/29 03:44:20;;;;;;;12.32;4.68;;;;;;;7.85;85.61;101620.94;4933614;29;20036;-85
2022/05/29 03:46:46;;;;;;;11.60;3.63;;;;;;;7.88;85.56;101619.94;4933902;29;20040;-85
2022/05/29 03:49:14;;;;;;;12.07;4.07;;;;;;;7.88;86.06;101615.53;4934319;29;20028;-85
2022/05/29 03:51:40;;;;;;;10.82;3.55;;;;;;;7.95;85.68;101608.22;4917335;29;20027;-85
2022/05/29 03:54:06;;;;;;;12.82;4.10;;;;;;;7.97;85.68;101616.84;4933108;29;20035;-86
2022/05/29 03:56:32;;;;;;;8.57;3.88;;;;;;;7.97;85.60;101609.81;4934935;29;20015;-85
2022/05/29 03:58:58;;;;;;;10.85;4.10;;;;;;;7.98;85.54;101611.53;4933504;29;20031;-86
2022/05/29 04:01:24;;;;;;;13.93;4.13;;;;;;;8.03;85.52;101609.53;4934393;29;20545;-85
2022/05/29 04:03:53;;;;;;;7.82;4.05;;;;;;;8.04;85.66;101594.66;4927198;29;20035;-85
2022/05/29 04:06:18;;;;;;;12.32;4.10;;;;;;;8.05;86.09;101602.44;4932965;29;20147;-85
2022/05/29 04:14:15;;;;;;;11.60;3.95;;;;;;;8.13;85.71;101602.91;4931967;29;20573;-86
2022/05/29 04:16:40;;;;;;;13.25;3.95;;;;;;;8.19;85.46;101604.34;4933626;29;20028;-85
2022/05/29 04:19:06;;;;;;;15.18;4.72;;;;;;;8.19;85.58;101604.34;4940454;29;20394;-85
2022/05/29 04:21:32;;;;;;;12.10;4.15;;;;;;;8.15;86.21;101603.66;4932404;29;20075;-84
2022/05/29 04:23:57;;;;;;;15.63;4.25;;;;;;;8.19;86.00;101599.09;4936550;29;20035;-86
2022/05/29 04:26:23;;;;;;;11.75;4.28;;;;;;;8.29;85.95;101599.47;4934851;29;20031;-85
2022/05/29 04:28:48;;;;;;;11.32;4.30;;;;;;;8.33;85.90;101593.13;4934373;29;20032;-84
2022/05/29 04:31:13;;;;;;;11.27;4.53;;;;;;;8.36;86.13;101595.63;4935603;29;20031;-85
2022/05/29 04:33:39;;;;;;;12.52;4.30;;;;;;;8.35;85.66;101593.94;4934761;29;20370;-85
2022/05/29 04:36:05;;;;;;;10.77;4.10;;;;;;;8.40;86.40;101594.53;4936958;29;20042;-85
2022/05/29 04:38:30;;;;;;;10.27;4.20;;;;;;;8.48;86.30;101603.72;4936260;29;20027;-85
2022/05/29 04:40:57;;;;;;;13.07;4.35;;;;;;;8.47;86.67;101612.50;4935814;29;20043;-87
2022/05/29 04:43:24;;;;;;;14.35;4.53;;;;;;;8.50;87.98;101614.13;4938919;29;20024;-87
2022/05/29 04:45:55;;;;;;;14.13;4.90;;;;;;;8.57;88.94;101625.13;4937620;29;20104;-87
2022/05/29 04:48:22;;;;;;;11.90;5.27;;;;;;;8.50;89.90;101614.13;4937292;29;20032;-87
2022/05/29 04:50:47;;;;;;;16.15;6.20;;;;;;;8.56;91.13;101613.78;4935206;29;20042;-86
2022/05/29 04:53:12;;;;;;;16.75;5.93;;;;;;;8.43;91.21;101618.84;4936459;29;20023;-86
2022/05/29 04:55:40;;;;;;;15.65;6.10;;;;;;;8.45;92.81;101616.13;4935215;29;20415;-86
2022/05/29 04:58:06;;;;;;;12.40;5.78;;;;;;;8.42;93.14;101616.31;4935698;29;20090;-86
2022/05/29 05:00:32;;;;;;;13.65;5.53;;;;;;;8.37;92.94;101608.66;4935874;29;20553;-84
2022/05/29 05:02:58;;;;;;;10.98;5.10;;;;;;;8.44;93.13;101607.44;4935232;29;20054;-84
2022/05/29 05:05:23;;;;;;;12.35;5.10;;;;;;;8.45;93.02;101600.41;4937215;29;20023;-84
2022/05/29 05:07:49;;;;;;;13.93;5.30;;;;;;;8.48;93.75;101601.09;4954405;29;20053;-84
2022/05/29 05:10:17;;;;;;;14.32;5.32;;;;;;;8.48;93.57;101602.88;4959043;28;20504;-86
2022/05/29 05:12:43;;;;;;;15.73;5.68;;;;;;;8.51;94.00;101600.06;4939511;29;20027;-86
2022/05/29 05:15:10;;;;;;;15.88;5.60;;;;;;;8.50;93.82;101598.38;4956510;29;20070;-87
2022/05/29 05:17:35;;;;;;;13.15;5.43;;;;;;;8.56;93.80;101603.28;4943255;28;20042;-86
2022/05/29 05:20:01;;;;;;;12.18;5.32;;;;;;;8.55;93.66;101596.34;4957063;28;20567;-85
2022/05/29 05:22:26;;;;;;;21.10;5.63;;;;;;;8.60;93.90;101596.97;4955717;29;20027;-85
2022/05/29 05:24:52;;;;;;;15.45;5.60;;;;;;;8.54;94.10;101599.91;4936790;29;20086;-85
2022/05/29 05:27:17;;;;;;;13.43;5.53;;;;;;;8.68;94.62;101596.53;4938275;29;20021;-86
2022/05/29 05:29:44;;;;;;;12.20;5.05;;;;;;;8.70;94.62;101594.69;4947348;29;20119;-86
2022/05/29 05:32:09;;;;;;;13.25;5.25;;;;;;;8.71;94.46;101591.97;4951579;29;20059;-85
2022/05/29 05:34:34;;;;;;;10.98;5.43;;;;;;;8.75;93.83;101593.50;4935330;29;20065;-85
2022/05/29 05:37:00;;;;;;;10.52;5.57;;;;;;;8.83;94.99;101587.84;4934752;29;20018;-85
2022/05/29 05:39:25;;;;;;;15.55;6.43;;;;;;;8.77;95.17;101596.88;4951391;29;20037;-85
2022/05/29 05:41:51;;;;;;;11.45;5.70;;;;;;;8.81;94.60;101592.34;4952209;29;20037;-86
2022/05/29 05:44:16;;;;;;;12.68;5.65;;;;;;;8.84;94.86;101596.56;4951962;29;20098;-85
2022/05/29 05:46:47;;;;;;;10.80;5.53;;;;;;;8.83;94.54;101593.09;4934881;29;20030;-85
2022/05/29 05:49:15;;;;;;;13.30;5.55;;;;;;;8.82;94.75;101587.94;4951423;29;20047;-85
2022/05/29 05:51:40;;;;;;;12.32;6.25;;;;;;;8.94;95.76;101589.88;4954516;29;20441;-86
2022/05/29 05:54:06;;;;;;;11.70;5.63;;;;;;;9.02;95.85;101587.66;4932032;29;20037;-85
2022/05/29 05:56:31;;;;;;;16.58;5.68;;;;;;;9.08;95.58;101589.94;4933690;29;20027;-85
2022/05/29 05:58:57;;;;;;;11.43;5.18;;;;;;;9.17;95.60;101592.06;4934993;29;20050;-85
2022/05/29 06:01:22;;;;;;;11.10;4.90;;;;;;;9.26;94.01;101583.69;4951793;29;20035;-86
2022/05/29 06:03:47;;;;;;;13.52;5.22;;;;;;;9.27;93.64;101590.63;4936199;29;20627;-86
2022/05/29 06:06:12;;;;;;;9.23;4.72;;;;;;;9.33;93.67;101578.94;4951648;29;20074;-86
2022/05/29 06:08:38;;;;;;;8.80;4.97;;;;;;;9.32;94.20;101583.34;4950803;28;20034;-86
2022/05/29 06:11:04;;;;;;;8.50;4.53;;;;;;;9.36;93.52;101582.22;4950438;28;20482;-86
2022/05/29 06:13:30;;;;;;;13.07;5.38;;;;;;;9.43;94.12;101580.94;4948131;29;20099;-85
2022/05/29 06:15:59;;;;;;;10.55;5.03;;;;;;;9.50;94.17;101580.56;4953734;29;20051;-85
2022/05/29 06:18:25;;;;;;;12.13;4.75;;;;;;;9.55;94.07;101575.91;4937887;29;20034;-86
2022/05/29 06:20:57;;;;;;;9.88;4.60;;;;;;;9.63;94.69;101578.94;4935322;29;20034;-86
2022/05/29 06:23:23;;;;;;;9.30;5.07;;;;;;;9.72;94.23;101575.78;4933248;29;20027;-85
2022/05/29 06:25:48;;;;;;;12.05;4.93;;;;;;;9.79;93.85;101573.63;4933243;28;20228;-85
2022/05/29 06:28:13;;;;;;;11.20;4.53;;;;;;;9.77;93.58;101578.13;4952674;29;20031;-86
2022/05/29 06:30:40;;;;;;;11.68;4.43;;;;;;;9.82;93.42;101576.91;4950654;29;20031;-85
2022/05/29 06:33:05;;;;;;;9.45;4.38;;;;;;;9.99;94.02;101571.50;4934894;29;20429;-85
2022/05/29 06:35:30;;;;;;;10.25;4.78;;;;;;;10.11;93.80;101576.97;4951365;29;20027;-85
2022/05/29 06:37:56;;;;;;;12.30;4.43;;;;;;;10.18;93.35;101576.50;4951831;29;20023;-85
2022/05/29 06:40:21;;;;;;;11.52;4.65;;;;;;;10.30;92.49;101578.41;4951642;29;20473;-85
2022/05/29 06:42:47;;;;;;;8.98;3.83;;;;;;;10.45;93.22;101586.31;4932720;29;20032;-86
2022/05/29 06:45:12;;;;;;;8.75;3.70;;;;;;;10.52;91.87;101579.75;4952703;29;20520;-85
2022/05/29 06:47:39;;;;;;;10.25;4.13;;;;;;;10.54;92.26;101581.34;4947990;28;20035;-85
2022/05/29 06:50:06;;;;;;;6.68;3.55;;;;;;;10.61;92.37;101582.63;4938040;29;20031;-85
2022/05/29 06:52:32;;;;;;;8.38;3.72;;;;;;;10.79;91.10;101580.63;4956385;28;20046;-85
2022/05/29 06:55:02;;;;;;;10.65;3.70;;;;;;;10.89;90.58;101581.75;4959302;28;20102;-86
2022/05/29 06:57:37;;;;;;;12.57;4.05;;;;;;;10.92;91.28;101581.56;4956789;28;20031;-85
2022/05/29 07:08:47;;;;;;;11.52;4.00;;;;;;;11.17;89.92;101578.19;4887850;29;20045;-86
2022/05/29 07:11:24;;;;;;;12.73;3.60;;;;;;;11.21;87.41;101573.59;4930110;29;20424;-86
2022/05/29 07:13:49;;;;;;;11.13;3.47;;;;;;;11.20;87.89;101572.72;4956440;28;20478;-86
2022/05/29 07:16:15;;;;;;;11.15;3.63;;;;;;;11.39;87.34;101574.16;4957112;28;20070;-86
2022/05/29 07:18:41;;;;;;;10.48;3.90;;;;;;;11.38;88.56;101567.22;4939023;28;20429;-86
2022/05/29 07:21:06;;;;;;;8.68;3.45;;;;;;;11.55;87.14;101570.41;4955847;28;20023;-86
2022/05/29 07:23:34;;;;;;;13.18;3.78;;;;;;;11.52;85.91;101569.78;4953579;28;20038;-86
2022/05/29 07:25:59;;;;;;;9.32;3.40;;;;;;;11.72;85.12;101566.66;4937282;29;20023;-86
2022/05/29 07:28:24;;;;;;;8.57;2.97;;;;;;;11.80;85.49;101556.47;4954663;28;20134;-85
2022/05/29 07:30:51;;;;;;;11.68;3.47;;;;;;;11.90;85.68;101560.16;4955161;28;20011;-86
2022/05/29 07:33:17;;;;;;;8.23;3.17;;;;;;;12.03;85.90;101560.19;4939431;29;20023;-85
2022/05/29 07:35:43;;;;;;;10.10;3.50;;;;;;;12.11;84.92;101551.75;4936707;29;20027;-86
2022/05/29 07:38:09;;;;;;;10.48;3.00;;;;;;;12.07;82.61;101560.81;4954678;29;20106;-85
2022/05/29 07:40:35;;;;;;;12.32;3.40;;;;;;;12.20;82.90;101556.38;4938704;29;20042;-85
2022/05/29 07:45:46;;;;;;;8.57;2.50;;;;;;;12.19;79.29;101560.81;4951709;29;20542;-84
2022/05/29 07:48:15;;;;;;;9.48;3.13;;;;;;;12.29;81.14;101558.38;4953989;29;20167;-85
2022/05/29 07:50:41;;;;;;;7.60;2.75;;;;;;;12.55;81.40;101557.41;4934782;28;20134;-85
2022/05/29 07:53:06;;;;;;;7.28;2.90;;;;;;;12.62;78.17;101551.69;4953398;29;20447;-85
2022/05/29 07:55:32;;;;;;;7.55;2.85;;;;;;;12.66;80.15;101550.50;4936485;29;20031;-85
2022/05/29 07:57:58;;;;;;;9.93;3.15;;;;;;;12.68;78.10;101546.78;4936368;29;20135;-85
2022/05/29 08:00:24;;;;;;;8.60;2.70;;;;;;;12.73;78.99;101547.31;4954011;29;20114;-85
2022/05/29 08:02:49;;;;;;;8.63;3.00;;;;;;;12.85;77.76;101551.72;4950326;29;20378;-85
2022/05/29 08:05:18;;;;;;;8.50;2.85;;;;;;;12.87;78.66;101548.97;4951232;28;20038;-85
2022/05/29 08:07:44;;;;;;;8.77;2.92;;;;;;;12.97;78.00;101549.97;4951974;29;20476;-85
2022/05/29 08:10:11;;;;;;;10.98;3.13;;;;;;;12.95;75.42;101551.06;4939800;28;20026;-79
2022/05/29 08:12:37;;;;;;;10.40;2.92;;;;;;;13.08;71.27;101549.19;4952983;29;20035;-79
2022/05/29 08:15:03;;;;;;;7.10;2.33;;;;;;;13.35;72.34;101551.66;4953745;29;20031;-79
2022/05/29 08:17:32;;;;;;;8.45;2.65;;;;;;;13.73;71.08;101536.38;4950933;28;20038;-78
2022/05/29 08:19:57;;;;;;;9.25;2.67;;;;;;;14.00;70.61;101548.44;4953512;29;20497;-79
2022/05/29 08:22:23;;;;;;;8.27;2.60;;;;;;;14.01;70.14;101543.06;4952745;29;20031;-77
2022/05/29 08:33:11;;;;;;;10.35;2.50;;;;;;;14.62;67.97;101532.13;4954128;29;20110;-86
2022/05/29 08:35:37;;;;;;;6.47;2.10;;;;;;;15.23;64.52;101521.84;4955061;29;20027;-84
2022/05/29 08:38:05;;;;;;;7.35;2.33;;;;;;;15.38;63.98;101522.38;4952928;28;20453;-84
2022/05/29 08:40:31;;;;;;;9.95;2.75;;;;;;;15.04;65.41;101517.19;4935261;29;20031;-84
2022/05/29 08:42:57;;;;;;;11.70;2.70;;;;;;;14.83;64.71;101522.47;4951103;28;20090;-83
2022/05/29 08:45:23;;;;;;;10.38;2.30;;;;;;;15.03;66.45;101526.97;4954747;28;20033;-84
2022/05/29 08:47:49;;;;;;;7.35;2.47;;;;;;;15.04;65.49;101520.69;4955326;28;20023;-86
2022/05/29 08:50:35;;;;;;;10.13;3.00;;;;;;;15.05;66.64;101522.38;4936374;29;20421;-84
2022/05/29 08:53:36;;;;;;;8.02;2.08;;;;;;;14.84;65.01;101523.31;4948240;28;20086;-83
2022/05/29 08:56:18;;;;;;;8.77;2.60;;;;;;;15.01;64.87;101515.66;4906003;29;20047;-83
2022/05/29 08:59:13;;;;;;;9.50;2.70;;;;;;;15.35;65.17;101513.72;4934116;29;20117;-84
2022/05/29 09:01:59;;;;;;;8.10;2.20;;;;;;;15.57;63.12;101504.78;4934973;29;20027;-83
2022/05/29 09:04:33;;;;;;;12.65;2.40;;;;;;;15.47;60.78;101511.84;4939787;29;20122;-84
2022/05/29 09:07:02;;;;;;;10.05;2.58;;;;;;;15.35;63.59;101510.22;4950781;28;20054;-83
2022/05/29 09:09:43;;;;;;;7.85;1.83;;;;;;;14.97;61.91;101519.53;4955884;28;20066;-83
2022/05/29 09:12:23;;;;;;;6.30;2.17;;;;;;;14.61;64.88;101522.50;4950843;28;20031;-84
2022/05/29 09:14:55;;;;;;;8.32;2.25;;;;;;;14.36;63.45;101512.97;4951353;28;20472;-84
2022/05/29 09:17:41;;;;;;;6.47;2.17;;;;;;;14.30;67.39;101502.88;4959351;28;20065;-84
2022/05/29 09:20:25;;;;;;;6.35;1.95;;;;;;;14.37;64.12;101509.34;4932695;29;20038;-84
2022/05/29 09:22:50;;;;;;;6.20;2.08;;;;;;;14.51;67.84;101505.66;4956385;28;20074;-84
2022/05/29 09:25:29;;;;;;;6.03;2.17;;;;;;;14.59;64.78;101509.38;4959185;28;20023;-85
2022/05/29 09:27:57;;;;;;;7.85;1.88;;;;;;;14.67;64.22;101503.47;4957537;28;20039;-84
2022/05/29 09:30:22;;;;;;;4.53;1.80;;;;;;;14.65;62.51;101500.09;4956097;28;20106;-84
2022/05/29 09:32:55;;;;;;;11.25;2.00;;;;;;;14.63;62.79;101496.72;4939424;29;20067;-84
2022/05/29 09:35:39;;;;;;;6.15;1.98;;;;;;;14.90;63.21;101496.31;4959626;28;20023;-84
2022/05/29 09:38:26;;;;;;;7.57;1.90;;;;;;;14.84;63.43;101487.06;4959118;28;20035;-86
2022/05/29 09:41:13;;;;;;;9.25;2.10;;;;;;;14.80;62.04;101490.88;4956081;28;20054;-84
2022/05/29 09:43:38;;;;;;;8.93;2.35;;;;;;;14.51;63.34;101489.78;4954891;28;20035;-84
2022/05/29 09:46:21;;;;;;;6.53;1.77;;;;;;;14.53;62.33;101487.84;4952922;28;20094;-83
2022/05/29 09:51:55;;;;;;;8.35;2.10;;;;;;;15.26;62.16;101479.19;4943485;28;20580;-85
2022/05/29 09:54:33;;;;;;;7.82;2.13;;;;;;;15.71;61.25;101476.28;4950838;28;20027;-85
2022/05/29 09:57:36;;;;;;;5.70;2.13;;;;;;;16.21;61.18;101474.56;4958152;28;20033;-86
2022/05/29 10:00:15;;;;;;;5.60;1.98;;;;;;;16.36;56.62;101467.03;4956532;28;20046;-85
2022/05/29 10:02:45;;;;;;;6.93;1.90;;;;;;;16.64;59.97;101468.94;4957939;28;20050;-86
2022/05/29 10:05:33;;;;;;;5.57;2.08;;;;;;;16.73;56.57;101457.50;4942835;28;20019;-85
2022/05/29 10:08:16;;;;;;;5.60;1.88;;;;;;;16.86;56.48;101454.59;4963331;28;20134;-86
2022/05/29 10:10:41;;;;;;;;;;;;;;;17.37;59.31;101459.59;4949586;28;20038;-85
2022/05/29 10:13:06;;;;;;;5.65;1.77;;;;;;;17.77;56.62;101461.22;4959583;28;20494;-85
2022/05/29 10:15:40;;;;;;;6.40;1.90;;;;;;;17.65;53.76;101451.72;4958476;28;20019;-87
2022/05/29 10:18:31;;;;;;;7.45;2.00;;;;;;;17.76;58.84;101468.38;4951455;28;20090;-88
2022/05/29 10:21:08;;;;;;;9.55;2.65;;;;;;;17.07;64.43;101465.91;4959212;28;20066;-87
2022/05/29 10:23:37;;;;;;;7.40;2.53;;;;;;;16.20;69.68;101464.91;4943695;28;20492;-86
2022/05/29 10:26:15;;;;;;;7.35;2.80;;;;;;;15.58;66.89;101466.69;4952097;28;20450;-86
2022/05/29 10:28:41;;;;;;;7.70;2.20;;;;;;;14.92;69.52;101463.41;4933659;29;20058;-87
2022/05/29 10:31:12;;;;;;;5.70;1.95;;;;;;;14.51;69.68;101463.28;4942205;28;20023;-87
2022/05/29 10:33:38;;;;;;;8.00;2.83;;;;;;;14.36;70.35;101465.31;4944467;28;20027;-87
2022/05/29 10:36:08;;;;;;;6.20;1.80;;;;;;;14.06;71.96;101458.88;4941783;28;20035;-87
2022/05/29 10:38:34;;;;;;;3.65;1.40;;;;;;;13.86;67.45;101456.09;4944841;28;20035;-88
2022/05/29 10:41:01;;;;;;;5.10;1.80;;;;;;;13.79;73.67;101464.50;4941648;28;20101;-88
2022/05/29 10:43:44;;;;;;;5.70;2.38;;;;;;;13.67;74.09;101452.22;4924881;28;20086;-87
2022/05/29 10:46:18;;;;;;;8.10;2.67;;;;;;;13.57;75.69;101461.81;4932352;29;20537;-87
2022/05/29 10:48:56;;;;;;;8.27;2.40;;;;;;;13.20;74.49;101465.56;4947068;28;20069;-88
2022/05/29 10:51:31;;;;;;;7.93;2.72;;;;;;;12.97;77.43;101470.75;4931976;28;20554;-88
2022/05/29 10:54:14;;;;;;;18.75;6.30;;;;;;;12.71;77.87;101466.50;4941908;28;20046;-88
2022/05/29 10:57:09;;;;;;;9.68;3.50;;;;;;;12.49;78.03;101468.09;4946462;28;20059;-86
2022/05/29 11:00:00;;;;;;;8.82;3.17;;;;;;;12.23;80.53;101463.81;4909813;28;20039;-89
2022/05/29 11:05:40;;;;;;;7.75;2.90;;;;;;;12.21;81.35;101471.00;4946455;28;20130;-91
2022/05/29 11:08:19;;;;;;;6.68;2.58;;;;;;;12.40;81.56;101463.44;4930231;29;20568;-90
2022/05/29 11:11:14;;;;;;;7.55;2.40;;;;;;;12.52;81.80;101462.59;4929913;29;20055;-89
2022/05/29 11:14:10;;;;;;;8.40;2.42;;;;;;;12.73;81.65;101462.81;4935608;28;20035;-89
2022/05/29 11:16:47;;;;;;;5.78;2.38;;;;;;;13.00;81.12;101449.38;4946294;28;20023;-89
2022/05/29 11:19:45;;;;;;;6.45;2.25;;;;;;;13.16;79.63;101463.13;4946264;28;20481;-90
2022/05/29 11:22:44;;;;;;;6.85;2.30;;;;;;;12.98;77.84;101461.84;4943272;28;20070;-90
2022/05/29 11:25:20;;;;;;;6.93;2.58;;;;;;;12.79;83.49;101466.78;4924949;28;20045;-90
2022/05/29 11:28:08;;;;;;;5.65;2.30;;;;;;;12.75;82.09;101468.81;4927564;29;20031;-91
2022/05/29 11:31:19;;;;;;;3.90;2.00;;;;;;;12.51;81.04;101468.81;4947110;28;20031;-90
2022/05/29 11:34:09;;;;;;;5.57;1.90;;;;;;;12.48;82.06;101470.84;4945199;28;20023;-90
2022/05/29 11:36:55;;;;;;;6.22;1.80;;;;;;;12.25;83.66;101475.09;4944773;28;20072;-90
2022/05/29 11:39:38;;;;;;;5.13;2.10;;;;;;;12.22;83.40;101462.97;4945504;28;20485;-89
2022/05/29 11:42:31;;;;;;;6.28;1.85;;;;;;;12.16;84.29;101465.22;4929036;29;20086;-89
2022/05/29 11:45:05;;;;;;;3.95;1.73;;;;;;;11.97;83.20;101459.53;4946738;28;20031;-90
2022/05/29 11:53:32;;;;;;;5.13;1.70;;;;;;;11.96;85.26;101457.84;4946506;28;20053;-89
2022/05/29 11:56:03;;;;;;;4.85;1.58;;;;;;;12.04;85.34;101450.25;4947820;28;20027;-89
2022/05/29 11:58:39;;;;;;;4.72;1.42;;;;;;;12.20;84.67;101453.50;4947201;28;20050;-88
2022/05/29 12:01:13;;;;;;;5.70;1.45;;;;;;;12.26;83.84;101452.19;4952522;28;20110;-88
2022/05/29 12:03:59;;;;;;;2.97;1.30;;;;;;;12.45;82.77;101450.78;4948175;28;20496;-89
2022/05/29 12:06:31;;;;;;;3.30;1.10;;;;;;;12.54;80.39;101454.56;4948101;28;20325;-88
2022/05/29 12:09:04;;;;;;;2.15;1.00;;;;;;;12.72;80.44;101447.06;4948025;28;20089;-87
2022/05/29 12:11:38;;;;;;;2.65;1.10;;;;;;;12.99;81.89;101449.50;4929388;29;20035;-88
2022/05/29 12:14:20;;;;;;;2.05;1.10;;;;;;;13.42;78.03;101447.13;4947906;28;20031;-87
2022/05/29 12:16:50;;;;;;;4.55;0.90;;;;;;;13.53;78.00;101438.38;4946432;28;20030;-88
2022/05/29 12:19:44;;;;;;;4.55;1.08;;;;;;;13.66;77.65;101444.41;4933161;28;20034;-87
2022/05/29 12:22:11;;;;;;;3.25;1.02;;;;;;;13.50;75.22;101442.09;4944438;28;20027;-87
2022/05/29 12:24:44;;;;;;;3.08;1.20;;;;;;;13.59;77.69;101437.91;4928776;29;20039;-88
2022/05/29 12:27:14;;;;;;;2.05;0.80;;;;;;;13.62;76.82;101432.41;4943722;28;20107;-87
2022/05/29 12:29:50;;;;;;;3.42;0.90;;;;;;;13.57;75.22;101430.09;4946790;28;20089;-87
2022/05/29 12:32:27;;;;;;;3.90;1.35;;;;;;;13.66;76.36;101426.75;4921723;29;20019;-87